Minneapolis, Minnesota
Current Conditions -  °F | °C
As of 2:53 AM on Saturday 25 Oct 2014 (Local Time) from KMSP Reporting Station
Broken Clouds Broken Clouds  
Wind Chill: 60°   Ceiling: 13000
Heat Index: 60°   Visibility: 10mi
Dew Point: 38°   Wind: 14mph
Humidity: 44%   Direction: 300°WNW
Pressure: 29.94"   Gusts: NA
Location:  44.98°N, 93.26°W
Report Text: KMSP 250753Z 30012KT 10SM BKN130 16/03 A2994 RMK AO2 SLP137 T01560033
Loading
Personal Weather Stations






























Interactive Weather Map
Tropical Storm Tracking
New forecast layout! Learn more

10-Day Weather Forecast

Advertisements
Track Severe Weather on mobile